Time;durP1;ratioP1;P1;durP2;ratioP2;P2;SDS_P1;SDS_P2;PMS_P1;PMS_P2;Temp;Humidity;BMP_temperature;BMP_pressure;BME280_temperature;BME280_humidity;BME280_pressure;Samples;Min_cycle;Max_cycle;Signal;HPM_P1;HPM_P2
2021/10/23 00:01:17;;;;;;;5.20;2.65;;;27.70;49.70;;;;;;4256976;27;20046;-66
2021/10/23 00:03:20;;;;;;;5.05;2.30;;;27.60;49.70;;;;;;4253572;27;20046;-66
2021/10/23 00:05:23;;;;;;;7.00;2.60;;;27.70;49.70;;;;;;4252202;27;20179;-68
2021/10/23 00:07:26;;;;;;;4.53;2.75;;;27.70;49.70;;;;;;4259203;27;20050;-66
2021/10/23 00:09:29;;;;;;;5.47;2.58;;;27.70;49.70;;;;;;4264409;27;20055;-71
2021/10/23 00:11:32;;;;;;;6.53;2.70;;;27.70;49.70;;;;;;4259754;27;20124;-71
2021/10/23 00:13:37;;;;;;;5.13;2.25;;;27.70;49.70;;;;;;4248424;27;20047;-70
2021/10/23 00:15:40;;;;;;;5.65;2.83;;;27.70;49.60;;;;;;4253999;27;20051;-70
2021/10/23 00:17:43;;;;;;;4.90;2.40;;;27.70;49.70;;;;;;4254749;27;20055;-71
2021/10/23 00:19:46;;;;;;;4.57;2.20;;;27.70;49.70;;;;;;4248725;27;20059;-71
2021/10/23 00:21:50;;;;;;;6.20;2.38;;;27.70;49.70;;;;;;4260070;27;20063;-70
2021/10/23 00:23:52;;;;;;;6.85;2.50;;;27.70;49.60;;;;;;4248392;27;20058;-71
2021/10/23 00:25:56;;;;;;;7.60;2.53;;;27.70;49.60;;;;;;4253034;27;20491;-69
2021/10/23 00:27:59;;;;;;;4.68;2.30;;;27.70;49.60;;;;;;4255608;27;20047;-68
2021/10/23 00:30:04;;;;;;;4.18;2.50;;;27.70;49.90;;;;;;4248122;27;20066;-67
2021/10/23 00:32:07;;;;;;;6.03;2.35;;;27.70;49.70;;;;;;4259980;27;20518;-72
2021/10/23 00:34:10;;;;;;;3.85;2.17;;;27.70;49.70;;;;;;4247995;27;20055;-69
2021/10/23 00:36:13;;;;;;;4.13;2.10;;;27.70;49.60;;;;;;4252036;27;20047;-71
2021/10/23 00:38:17;;;;;;;3.88;2.03;;;27.70;49.60;;;;;;4257329;27;20054;-67
2021/10/23 00:40:21;;;;;;;4.50;2.13;;;27.70;49.60;;;;;;4264826;27;20047;-69
2021/10/23 00:42:24;;;;;;;2.90;1.95;;;27.70;49.60;;;;;;4260376;27;20058;-70
2021/10/23 00:44:31;;;;;;;4.20;2.25;;;27.70;49.60;;;;;;4247994;27;20094;-70
2021/10/23 00:46:36;;;;;;;4.20;2.30;;;27.70;49.70;;;;;;4251999;27;20047;-70
2021/10/23 00:48:40;;;;;;;3.67;2.35;;;27.70;49.60;;;;;;4257339;27;20047;-73
2021/10/23 00:50:46;;;;;;;6.07;2.33;;;27.70;49.70;;;;;;4264567;27;20058;-73
2021/10/23 00:52:50;;;;;;;5.50;2.10;;;27.70;49.60;;;;;;4252346;27;20051;-75
2021/10/23 00:54:53;;;;;;;4.68;2.28;;;27.70;49.60;;;;;;4265012;27;20387;-71
2021/10/23 00:56:57;;;;;;;4.18;2.17;;;27.70;49.60;;;;;;4259641;27;20059;-70
2021/10/23 00:59:00;;;;;;;8.00;2.50;;;27.70;49.60;;;;;;4255054;27;20054;-69
2021/10/23 01:01:03;;;;;;;4.40;2.28;;;27.70;49.60;;;;;;4247757;27;20119;-70
2021/10/23 01:03:07;;;;;;;3.72;2.20;;;27.70;49.60;;;;;;4258292;27;20051;-67
2021/10/23 01:05:12;;;;;;;3.55;2.00;;;27.70;49.60;;;;;;4247391;27;20055;-69
2021/10/23 01:07:15;;;;;;;4.03;1.90;;;27.70;49.60;;;;;;4248434;27;20059;-68
2021/10/23 01:09:19;;;;;;;3.72;2.20;;;27.70;49.60;;;;;;4256440;27;20051;-72
2021/10/23 01:11:22;;;;;;;3.65;1.85;;;27.70;49.60;;;;;;4264775;27;20051;-73
2021/10/23 01:13:25;;;;;;;4.85;1.92;;;27.70;49.50;;;;;;4233219;27;20055;-70
2021/10/23 01:15:30;;;;;;;5.15;2.35;;;27.70;49.50;;;;;;4245381;27;20054;-66
2021/10/23 01:17:33;;;;;;;;;;;27.70;49.60;;;;;;4260607;27;20047;-70
2021/10/23 01:19:37;;;;;;;4.00;2.10;;;27.70;49.50;;;;;;4256128;27;20275;-71
2021/10/23 01:21:45;;;;;;;4.18;2.10;;;27.70;49.60;;;;;;4264601;27;20483;-72
2021/10/23 01:23:48;;;;;;;4.07;2.22;;;27.70;49.60;;;;;;4251599;27;20058;-68
2021/10/23 01:25:52;;;;;;;4.85;2.20;;;27.70;49.50;;;;;;4264053;27;20059;-67
2021/10/23 01:27:57;;;;;;;4.57;2.10;;;27.70;49.50;;;;;;4259846;27;20066;-70
2021/10/23 01:30:00;;;;;;;5.25;2.08;;;27.70;49.50;;;;;;4256528;27;20050;-72
2021/10/23 01:32:03;;;;;;;4.15;2.10;;;27.70;49.50;;;;;;4263920;27;20119;-73
2021/10/23 01:34:14;;;;;;;4.57;1.95;;;27.70;49.50;;;;;;4259325;27;20491;-71
2021/10/23 01:36:18;;;;;;;3.58;2.00;;;27.70;49.50;;;;;;4246687;27;20059;-67
2021/10/23 01:38:22;;;;;;;4.90;2.45;;;27.70;49.50;;;;;;4251737;27;20050;-71
2021/10/23 01:40:28;;;;;;;3.95;2.20;;;27.70;49.40;;;;;;4235934;27;20055;-73
2021/10/23 01:42:31;;;;;;;4.30;2.28;;;27.70;49.50;;;;;;4247341;27;20445;-72
2021/10/23 01:44:35;;;;;;;3.20;2.00;;;27.70;49.50;;;;;;4258985;27;20631;-67
2021/10/23 01:46:39;;;;;;;3.25;1.88;;;27.70;49.40;;;;;;4247004;27;20073;-74
2021/10/23 01:48:42;;;;;;;3.78;1.92;;;27.70;49.50;;;;;;4251722;27;20054;-69
2021/10/23 01:50:45;;;;;;;4.38;1.77;;;27.70;49.50;;;;;;4254370;27;20127;-68
2021/10/23 01:52:49;;;;;;;6.03;2.25;;;27.70;49.40;;;;;;4246652;27;20051;-68
2021/10/23 01:54:53;;;;;;;5.22;2.03;;;27.80;50.10;;;;;;4250986;27;20047;-71
2021/10/23 01:56:56;;;;;;;3.40;1.80;;;27.70;49.40;;;;;;4253809;27;20495;-70
2021/10/23 01:59:00;;;;;;;5.78;2.30;;;27.80;49.60;;;;;;4251471;27;20456;-73
2021/10/23 02:01:03;;;;;;;3.55;2.05;;;27.80;49.40;;;;;;4263671;27;20047;-71
2021/10/23 02:03:06;;;;;;;3.65;1.90;;;27.80;49.50;;;;;;4255634;27;20062;-68
2021/10/23 02:05:09;;;;;;;5.28;2.30;;;27.80;49.40;;;;;;4258947;27;20054;-70
2021/10/23 02:07:12;;;;;;;3.33;1.88;;;27.70;49.30;;;;;;4246535;27;20055;-69
2021/10/23 02:09:15;;;;;;;4.25;2.08;;;27.80;49.40;;;;;;4250555;27;20544;-73
2021/10/23 02:11:20;;;;;;;3.75;1.80;;;27.70;49.30;;;;;;4254565;27;20055;-68
2021/10/23 02:13:23;;;;;;;5.05;1.90;;;27.80;49.30;;;;;;4246563;27;20111;-72
2021/10/23 02:15:26;;;;;;;3.67;2.08;;;27.80;49.40;;;;;;4258645;27;20062;-69
2021/10/23 02:17:29;;;;;;;3.95;1.85;;;27.70;49.30;;;;;;4246333;27;20058;-71
2021/10/23 02:19:32;;;;;;;4.07;2.00;;;27.80;49.40;;;;;;4249452;27;20047;-74
2021/10/23 02:21:35;;;;;;;3.58;1.85;;;27.80;49.40;;;;;;4255331;27;20456;-68
2021/10/23 02:23:39;;;;;;;3.17;1.83;;;27.80;49.40;;;;;;4246351;27;20119;-67
2021/10/23 02:25:42;;;;;;;3.60;1.70;;;27.80;49.40;;;;;;4258298;27;20051;-70
2021/10/23 02:27:47;;;;;;;3.08;1.70;;;27.80;49.30;;;;;;4245934;27;20065;-72
2021/10/23 02:29:50;;;;;;;4.50;1.95;;;27.80;49.40;;;;;;4230684;27;20076;-68
2021/10/23 02:31:53;;;;;;;4.10;2.05;;;27.80;49.30;;;;;;4255434;27;20115;-69
2021/10/23 02:33:56;;;;;;;4.28;2.10;;;27.80;49.30;;;;;;4246424;27;20411;-71
2021/10/23 02:35:59;;;;;;;4.80;2.00;;;27.80;49.30;;;;;;4257356;27;20062;-71
2021/10/23 02:38:03;;;;;;;6.60;1.70;;;27.80;49.30;;;;;;4247103;27;20047;-70
2021/10/23 02:40:07;;;;;;;3.90;2.08;;;27.80;49.30;;;;;;4248371;27;20058;-73
2021/10/23 02:42:10;;;;;;;5.57;2.20;;;27.80;49.30;;;;;;4256083;27;20054;-64
2021/10/23 02:44:14;;;;;;;3.65;1.75;;;27.80;49.30;;;;;;4246238;27;20055;-70
2021/10/23 02:46:17;;;;;;;4.28;2.05;;;27.80;49.30;;;;;;4256878;27;20103;-70
2021/10/23 02:48:21;;;;;;;2.88;1.70;;;27.80;49.30;;;;;;4247116;27;20047;-73
2021/10/23 02:50:24;;;;;;;2.80;1.83;;;27.80;49.20;;;;;;4247875;27;20047;-69
2021/10/23 02:52:27;;;;;;;2.50;1.60;;;27.80;49.30;;;;;;4256112;27;20070;-73
2021/10/23 02:54:30;;;;;;;4.18;1.67;;;27.80;49.30;;;;;;4245658;27;20058;-68
2021/10/23 02:56:33;;;;;;;3.40;1.85;;;27.80;49.20;;;;;;4249972;27;20047;-73
2021/10/23 02:58:36;;;;;;;3.80;1.90;;;27.80;49.20;;;;;;4245543;27;20051;-71
2021/10/23 03:00:41;;;;;;;3.92;1.90;;;27.80;49.20;;;;;;4249810;27;20050;-71
2021/10/23 03:02:45;;;;;;;4.00;1.70;;;27.80;49.20;;;;;;4247482;27;20055;-66
2021/10/23 03:04:49;;;;;;;4.07;1.98;;;27.80;49.10;;;;;;4245693;27;20104;-74
2021/10/23 03:06:52;;;;;;;3.47;1.92;;;27.80;49.10;;;;;;4255597;27;20570;-72
2021/10/23 03:08:55;;;;;;;4.13;1.90;;;27.80;49.20;;;;;;4247892;27;20055;-75
2021/10/23 03:10:58;;;;;;;3.80;1.98;;;27.80;49.20;;;;;;4247085;27;20062;-69
2021/10/23 03:13:01;;;;;;;5.43;1.65;;;27.80;49.10;;;;;;4251361;27;20051;-70
2021/10/23 03:15:06;;;;;;;5.68;2.10;;;27.80;49.10;;;;;;4263058;27;20046;-74
2021/10/23 03:17:10;;;;;;;3.30;1.90;;;27.80;49.20;;;;;;4234398;28;20052;-73
2021/10/23 03:19:13;;;;;;;2.53;1.60;;;27.80;49.10;;;;;;4260199;27;20051;-74
2021/10/23 03:21:18;;;;;;;4.13;2.00;;;27.80;49.10;;;;;;4261232;27;20047;-73
2021/10/23 03:23:22;;;;;;;3.70;1.88;;;27.80;49.10;;;;;;4252294;27;20050;-74
2021/10/23 03:25:24;;;;;;;4.03;1.75;;;27.80;49.10;;;;;;4244358;27;20051;-74
2021/10/23 03:27:28;;;;;;;4.18;1.80;;;27.80;49.10;;;;;;4253053;27;20055;-67
2021/10/23 03:29:31;;;;;;;3.60;1.50;;;27.80;49.10;;;;;;4259607;27;20054;-68
2021/10/23 03:31:34;;;;;;;5.25;1.90;;;27.80;49.10;;;;;;4260982;27;20043;-71
2021/10/23 03:33:39;;;;;;;5.15;1.77;;;27.80;49.10;;;;;;4251012;27;20043;-70
2021/10/23 03:35:42;;;;;;;2.78;1.73;;;27.80;49.10;;;;;;4262602;27;20444;-71
2021/10/23 03:37:45;;;;;;;4.43;1.77;;;27.80;49.10;;;;;;4253783;27;20051;-73
2021/10/23 03:39:48;;;;;;;2.65;1.67;;;27.80;49.10;;;;;;4262364;27;20103;-71
2021/10/23 03:41:51;;;;;;;3.20;1.70;;;27.80;49.10;;;;;;4263473;27;20051;-71
2021/10/23 03:43:54;;;;;;;2.85;1.80;;;27.80;49.10;;;;;;4260345;27;20051;-71
2021/10/23 03:45:57;;;;;;;3.60;1.60;;;27.80;49.00;;;;;;4248933;27;20384;-74
2021/10/23 03:48:00;;;;;;;5.68;2.15;;;27.80;49.10;;;;;;4256769;27;20455;-74
2021/10/23 03:50:05;;;;;;;2.90;1.67;;;27.80;49.00;;;;;;4253063;27;20054;-72
2021/10/23 03:52:09;;;;;;;3.20;1.70;;;27.80;49.10;;;;;;4250038;27;20051;-73
2021/10/23 03:54:12;;;;;;;3.67;1.83;;;27.80;49.00;;;;;;4259963;27;20040;-66
2021/10/23 03:56:15;;;;;;;3.85;1.90;;;27.80;49.10;;;;;;4248265;27;20627;-74
2021/10/23 03:58:18;;;;;;;3.20;1.55;;;27.80;49.00;;;;;;4252500;27;20047;-68
2021/10/23 04:00:21;;;;;;;4.63;1.92;;;27.80;49.00;;;;;;4261062;27;20058;-71
2021/10/23 04:02:24;;;;;;;4.78;1.88;;;27.90;49.10;;;;;;4264012;27;20054;-73
2021/10/23 04:04:28;;;;;;;6.63;1.90;;;27.80;49.00;;;;;;4253763;27;20538;-73
2021/10/23 04:06:32;;;;;;;3.45;1.70;;;27.80;49.00;;;;;;4265897;27;20058;-72
2021/10/23 04:08:35;;;;;;;3.65;1.80;;;27.80;49.00;;;;;;4258170;27;20047;-72
2021/10/23 04:10:38;;;;;;;4.22;2.28;;;27.80;49.00;;;;;;4260169;27;20054;-73
2021/10/23 04:12:41;;;;;;;2.15;1.60;;;27.80;49.00;;;;;;4263990;27;20119;-71
2021/10/23 04:14:44;;;;;;;5.50;1.65;;;27.80;48.90;;;;;;4253957;27;20306;-75
2021/10/23 04:16:47;;;;;;;4.57;2.17;;;27.80;49.00;;;;;;4265626;27;20107;-74
2021/10/23 04:18:55;;;;;;;3.05;1.80;;;27.80;49.00;;;;;;4257812;27;20051;-74
2021/10/23 04:20:58;;;;;;;3.28;1.75;;;27.80;48.90;;;;;;4260060;27;20107;-72
2021/10/23 04:23:03;;;;;;;2.97;1.60;;;27.80;48.90;;;;;;4262232;27;20047;-72
2021/10/23 04:25:06;;;;;;;3.33;1.70;;;27.80;49.00;;;;;;4259461;27;20774;-68
2021/10/23 04:27:09;;;;;;;2.97;1.40;;;27.80;49.00;;;;;;4248283;27;20051;-68
2021/10/23 04:29:12;;;;;;;7.03;2.20;;;27.80;48.90;;;;;;4254808;27;20047;-70
2021/10/23 04:31:15;;;;;;;4.60;1.90;;;27.80;49.00;;;;;;4253804;27;20128;-71
2021/10/23 04:33:18;;;;;;;5.18;1.60;;;27.80;48.90;;;;;;4248966;27;20057;-74
2021/10/23 04:35:21;;;;;;;4.40;1.88;;;27.80;48.90;;;;;;4259290;27;20464;-71
2021/10/23 04:37:24;;;;;;;3.67;1.50;;;27.80;48.90;;;;;;4229568;28;20051;-65
2021/10/23 04:39:29;;;;;;;3.63;1.55;;;27.80;48.90;;;;;;4235172;27;20092;-67
2021/10/23 04:41:32;;;;;;;4.97;1.95;;;27.80;48.90;;;;;;4254328;27;20051;-66
2021/10/23 04:43:35;;;;;;;3.85;1.52;;;27.80;48.90;;;;;;4248533;27;20051;-73
2021/10/23 04:45:39;;;;;;;4.10;1.98;;;27.80;48.90;;;;;;4259370;27;20047;-66
2021/10/23 04:47:42;;;;;;;3.55;1.65;;;27.80;48.90;;;;;;4247787;27;20066;-69
2021/10/23 04:49:45;;;;;;;3.38;1.63;;;27.80;48.90;;;;;;4251769;27;20043;-73
2021/10/23 04:51:48;;;;;;;4.72;1.88;;;27.80;48.80;;;;;;4254850;27;20128;-72
2021/10/23 04:53:51;;;;;;;3.17;1.60;;;27.90;48.90;;;;;;4247637;27;20054;-74
2021/10/23 04:55:55;;;;;;;3.75;1.55;;;27.80;48.80;;;;;;4260679;27;20074;-68
2021/10/23 04:57:58;;;;;;;7.57;1.70;;;27.90;48.90;;;;;;4264833;27;20054;-69
2021/10/23 05:00:02;;;;;;;4.25;1.55;;;27.90;48.90;;;;;;4260113;27;20035;-72
2021/10/23 05:02:05;;;;;;;3.90;1.80;;;27.80;48.80;;;;;;4255403;27;20071;-69
2021/10/23 05:04:08;;;;;;;5.45;1.83;;;27.80;48.80;;;;;;4254428;27;20112;-74
2021/10/23 05:06:11;;;;;;;5.53;1.80;;;27.80;48.80;;;;;;4251632;27;20376;-73
2021/10/23 05:08:14;;;;;;;3.35;1.80;;;27.90;48.80;;;;;;4264859;27;20050;-72
2021/10/23 05:10:18;;;;;;;2.95;1.63;;;27.80;48.80;;;;;;4260391;27;20460;-73
2021/10/23 05:12:22;;;;;;;3.97;1.77;;;27.80;48.80;;;;;;4256145;27;20046;-72
2021/10/23 05:14:25;;;;;;;2.80;1.58;;;27.80;48.70;;;;;;4264465;27;20050;-72
2021/10/23 05:16:28;;;;;;;3.05;1.63;;;27.80;48.80;;;;;;4251130;27;20504;-69
2021/10/23 05:18:31;;;;;;;2.22;1.50;;;27.80;48.70;;;;;;4229405;28;20055;-73
2021/10/23 05:20:35;;;;;;;4.03;1.85;;;27.90;48.90;;;;;;4250493;27;20043;-73
2021/10/23 05:22:38;;;;;;;3.53;1.58;;;27.80;48.80;;;;;;4255979;27;20051;-74
2021/10/23 05:24:41;;;;;;;3.70;1.60;;;27.80;48.80;;;;;;4247609;27;20070;-70
2021/10/23 05:26:44;;;;;;;3.53;1.63;;;27.90;48.80;;;;;;4258911;27;20088;-70
2021/10/23 05:28:49;;;;;;;2.95;1.30;;;27.90;48.80;;;;;;4247756;27;20054;-68
2021/10/23 05:30:52;;;;;;;4.20;2.28;;;27.90;48.80;;;;;;4249945;27;20043;-72
2021/10/23 05:32:55;;;;;;;3.25;1.45;;;27.90;48.80;;;;;;4256448;27;20043;-72
2021/10/23 05:34:58;;;;;;;3.53;1.75;;;27.90;48.80;;;;;;4247010;27;20396;-73
2021/10/23 05:37:01;;;;;;;4.40;1.58;;;27.90;48.80;;;;;;4239815;27;20098;-73
2021/10/23 05:39:04;;;;;;;5.35;1.90;;;27.80;48.70;;;;;;4247489;27;20111;-72
2021/10/23 05:41:07;;;;;;;4.75;1.80;;;27.80;48.80;;;;;;4248961;27;20055;-73
2021/10/23 05:43:10;;;;;;;5.38;1.70;;;27.90;48.80;;;;;;4238982;27;20506;-73
2021/10/23 05:45:14;;;;;;;4.75;1.42;;;27.80;48.70;;;;;;4247222;27;20055;-70
2021/10/23 05:47:17;;;;;;;3.72;1.88;;;27.90;48.80;;;;;;4257850;27;20062;-72
2021/10/23 05:49:21;;;;;;;3.20;1.50;;;27.90;48.80;;;;;;4248550;27;20051;-67
2021/10/23 05:51:25;;;;;;;3.65;1.70;;;27.80;48.70;;;;;;4248550;27;20111;-74
2021/10/23 05:53:28;;;;;;;3.15;1.65;;;27.90;48.80;;;;;;4257391;27;20046;-67
2021/10/23 05:55:32;;;;;;;3.85;1.73;;;27.90;48.70;;;;;;4228567;27;20085;-70
2021/10/23 05:57:35;;;;;;;4.75;2.10;;;27.90;48.80;;;;;;4250520;27;20051;-69
2021/10/23 05:59:42;;;;;;;2.70;1.70;;;27.90;48.80;;;;;;4261666;27;20050;-68
2021/10/23 06:01:47;;;;;;;3.53;1.63;;;27.90;48.70;;;;;;4258940;27;20051;-71
2021/10/23 06:03:50;;;;;;;2.92;1.70;;;27.80;48.70;;;;;;4249352;27;20155;-66
2021/10/23 06:05:53;;;;;;;2.03;1.20;;;27.90;48.70;;;;;;4228253;28;20055;-73
2021/10/23 06:07:56;;;;;;;3.22;1.70;;;27.90;48.70;;;;;;4256740;27;20062;-72
2021/10/23 06:10:04;;;;;;;3.40;1.42;;;27.90;48.70;;;;;;4248314;27;20059;-74
2021/10/23 06:12:07;;;;;;;3.17;1.60;;;27.90;48.80;;;;;;4248203;27;20058;-72
2021/10/23 06:14:10;;;;;;;4.40;1.60;;;27.80;48.60;;;;;;4256915;27;20058;-69
2021/10/23 06:16:14;;;;;;;3.65;1.60;;;27.90;48.70;;;;;;4246613;27;20058;-67
2021/10/23 06:18:20;;;;;;;3.05;1.50;;;27.90;48.70;;;;;;4256710;27;20047;-70
2021/10/23 06:20:23;;;;;;;4.40;2.30;;;27.90;48.70;;;;;;4247649;27;20043;-70
2021/10/23 06:22:26;;;;;;;4.88;1.63;;;27.90;48.70;;;;;;4247465;27;20049;-69
2021/10/23 06:24:29;;;;;;;2.83;1.50;;;27.90;48.70;;;;;;4252714;27;20059;-72
2021/10/23 06:26:32;;;;;;;4.50;1.60;;;27.90;48.70;;;;;;4263398;27;20051;-74
2021/10/23 06:28:38;;;;;;;4.03;1.70;;;27.90;48.70;;;;;;4234833;27;20427;-70
2021/10/23 06:30:41;;;;;;;2.90;1.45;;;27.90;48.70;;;;;;4242972;27;20047;-70
2021/10/23 06:32:46;;;;;;;2.55;1.27;;;27.90;48.70;;;;;;4261745;27;20046;-72
2021/10/23 06:34:50;;;;;;;4.32;1.85;;;27.90;48.70;;;;;;4252485;27;20043;-73
2021/10/23 06:36:53;;;;;;;3.05;1.52;;;27.90;48.70;;;;;;4263462;27;20061;-69
2021/10/23 06:38:56;;;;;;;3.80;1.63;;;27.90;48.70;;;;;;4253007;27;20055;-72
2021/10/23 06:40:59;;;;;;;3.55;1.80;;;27.90;49.30;;;;;;4261041;27;20055;-69
2021/10/23 06:43:02;;;;;;;4.47;1.52;;;27.90;48.70;;;;;;4261733;27;20099;-70
2021/10/23 06:45:08;;;;;;;3.00;1.65;;;27.90;48.70;;;;;;4251963;27;20050;-71
2021/10/23 06:47:11;;;;;;;4.45;1.85;;;27.90;48.70;;;;;;4263255;27;20115;-68
2021/10/23 06:49:14;;;;;;;4.43;1.60;;;27.90;48.70;;;;;;4252924;27;20055;-72
2021/10/23 06:51:19;;;;;;;3.85;1.75;;;27.90;48.70;;;;;;4260241;27;20053;-70
2021/10/23 06:53:22;;;;;;;4.78;2.03;;;27.90;48.70;;;;;;4261207;27;20515;-66
2021/10/23 06:55:25;;;;;;;3.75;1.58;;;28.00;48.70;;;;;;4244485;27;20054;-65
2021/10/23 06:57:28;;;;;;;3.72;1.83;;;27.90;48.70;;;;;;4248704;27;20055;-65
2021/10/23 06:59:31;;;;;;;3.78;1.58;;;27.90;48.70;;;;;;4254907;27;20042;-65
2021/10/23 07:01:34;;;;;;;3.33;1.80;;;28.00;48.80;;;;;;4262723;27;20050;-73
2021/10/23 07:03:37;;;;;;;3.92;1.60;;;28.00;48.70;;;;;;4251760;27;20051;-67
2021/10/23 07:05:43;;;;;;;3.92;1.65;;;28.00;48.70;;;;;;4257151;27;20043;-70
2021/10/23 07:07:48;;;;;;;4.88;1.90;;;28.00;48.70;;;;;;4245580;28;20051;-71
2021/10/23 07:09:51;;;;;;;4.93;1.65;;;27.90;48.70;;;;;;4254673;27;20047;-74
2021/10/23 07:11:54;;;;;;;2.22;1.52;;;27.90;48.60;;;;;;4248796;27;20108;-68
2021/10/23 07:13:57;;;;;;;3.90;2.15;;;27.90;48.60;;;;;;4250772;27;20047;-65
2021/10/23 07:16:00;;;;;;;5.82;1.85;;;27.90;48.60;;;;;;4254547;27;20490;-65
2021/10/23 07:18:04;;;;;;;4.35;1.80;;;28.00;48.70;;;;;;4266421;27;20043;-72
2021/10/23 07:20:08;;;;;;;3.95;1.65;;;28.00;48.60;;;;;;4257950;27;20532;-72
2021/10/23 07:22:11;;;;;;;3.03;1.77;;;27.90;48.70;;;;;;4262347;27;20062;-71
2021/10/23 07:24:19;;;;;;;2.65;1.50;;;28.00;48.60;;;;;;4246602;27;20429;-70
2021/10/23 07:26:22;;;;;;;4.10;1.67;;;27.90;48.60;;;;;;4254305;27;20054;-72
2021/10/23 07:28:26;;;;;;;3.75;1.88;;;27.90;48.60;;;;;;4248110;27;20051;-68
2021/10/23 07:30:29;;;;;;;2.60;1.40;;;28.00;48.70;;;;;;4256933;27;20047;-69
2021/10/23 07:32:33;;;;;;;5.20;1.65;;;28.00;48.60;;;;;;4262359;27;20058;-70
2021/10/23 07:34:36;;;;;;;6.35;1.88;;;28.00;48.60;;;;;;4264627;27;20521;-70
2021/10/23 07:36:39;;;;;;;4.25;1.90;;;28.00;48.60;;;;;;4236316;27;20061;-71
2021/10/23 07:38:42;;;;;;;4.32;1.60;;;28.00;48.60;;;;;;4247717;27;20058;-71
2021/10/23 07:40:47;;;;;;;7.35;2.20;;;28.00;48.60;;;;;;4257493;27;20050;-69
2021/10/23 07:42:50;;;;;;;3.55;1.80;;;28.00;48.60;;;;;;4261655;27;20047;-68
2021/10/23 07:44:53;;;;;;;5.10;1.80;;;28.00;48.60;;;;;;4264189;27;20203;-67
2021/10/23 07:46:56;;;;;;;5.13;1.60;;;28.00;48.60;;;;;;4254223;27;20441;-73
2021/10/23 07:49:00;;;;;;;4.40;1.60;;;28.00;48.60;;;;;;4266056;27;20058;-66
2021/10/23 07:51:04;;;;;;;5.45;1.92;;;28.00;48.60;;;;;;4257928;27;20051;-68
2021/10/23 07:53:07;;;;;;;2.63;1.27;;;28.00;48.60;;;;;;4242479;27;20051;-73
2021/10/23 07:55:10;;;;;;;4.43;2.03;;;28.00;48.60;;;;;;4264332;27;20055;-71
2021/10/23 07:57:16;;;;;;;4.90;1.77;;;28.00;48.60;;;;;;4250647;27;20051;-72
2021/10/23 07:59:19;;;;;;;4.15;1.50;;;28.00;48.60;;;;;;4248550;27;20055;-71
2021/10/23 08:01:22;;;;;;;3.28;1.90;;;28.00;48.50;;;;;;4255041;27;20058;-71
2021/10/23 08:03:26;;;;;;;3.63;1.92;;;28.00;48.50;;;;;;4260313;27;20442;-69
2021/10/23 08:05:32;;;;;;;4.35;1.65;;;28.00;48.50;;;;;;4231430;27;20079;-69
2021/10/23 08:07:35;;;;;;;3.45;1.63;;;28.10;48.60;;;;;;4253895;27;20047;-68
2021/10/23 08:09:39;;;;;;;4.45;1.83;;;28.10;48.60;;;;;;4265565;27;20111;-68
2021/10/23 08:11:43;;;;;;;6.32;1.90;;;28.10;48.50;;;;;;4257577;27;20058;-71
2021/10/23 08:13:47;;;;;;;6.18;1.85;;;28.00;48.50;;;;;;4260672;27;20061;-68
2021/10/23 08:15:50;;;;;;;6.30;1.80;;;28.00;48.50;;;;;;4263894;27;20121;-69
2021/10/23 08:17:54;;;;;;;3.47;1.67;;;28.00;48.40;;;;;;4253577;27;20047;-70
2021/10/23 08:19:57;;;;;;;3.22;1.65;;;28.10;48.50;;;;;;4265041;27;20051;-66
2021/10/23 08:22:00;;;;;;;4.68;1.88;;;28.10;48.60;;;;;;4258166;27;20062;-72
2021/10/23 08:24:03;;;;;;;4.60;1.70;;;28.10;48.50;;;;;;4260962;27;20119;-71
2021/10/23 08:26:06;;;;;;;3.65;1.80;;;28.00;48.50;;;;;;4264615;27;20062;-72
2021/10/23 08:28:09;;;;;;;4.05;1.83;;;28.10;48.50;;;;;;4259681;27;20103;-72
2021/10/23 08:30:16;;;;;;;3.60;1.77;;;28.00;48.50;;;;;;4248069;27;20104;-72
2021/10/23 08:32:19;;;;;;;5.22;2.10;;;28.10;48.50;;;;;;4254178;27;20046;-73
2021/10/23 08:34:22;;;;;;;3.90;1.80;;;28.10;48.50;;;;;;4253764;27;20066;-73
2021/10/23 08:36:25;;;;;;;2.75;1.73;;;28.10;48.50;;;;;;4249313;27;20051;-69
2021/10/23 08:38:28;;;;;;;4.32;1.52;;;28.10;48.50;;;;;;4241032;27;20059;-72
2021/10/23 08:40:32;;;;;;;2.95;1.65;;;28.10;48.50;;;;;;4248231;27;20104;-72
2021/10/23 08:42:35;;;;;;;3.40;1.55;;;28.10;48.50;;;;;;4253840;27;20047;-72
2021/10/23 08:44:40;;;;;;;5.65;1.85;;;28.10;48.50;;;;;;4254119;27;20055;-69
2021/10/23 08:46:45;;;;;;;6.38;2.15;;;28.10;48.40;;;;;;4249004;27;20058;-70
2021/10/23 08:48:50;;;;;;;3.10;1.55;;;28.10;48.40;;;;;;4259331;27;20047;-74
2021/10/23 08:50:53;;;;;;;5.05;1.95;;;28.10;48.50;;;;;;4247913;27;20524;-73
2021/10/23 08:53:13;;;;;;;3.20;1.60;;;28.10;48.50;;;;;;4255918;27;20487;-74
2021/10/23 08:55:17;;;;;;;3.25;1.42;;;28.10;48.40;;;;;;4251551;27;20051;-69
2021/10/23 08:57:20;;;;;;;4.88;1.80;;;28.10;48.40;;;;;;4249699;27;20047;-73
2021/10/23 08:59:23;;;;;;;6.03;1.60;;;28.10;48.50;;;;;;4253117;27;20051;-72
2021/10/23 09:01:28;;;;;;;3.45;1.63;;;28.20;48.50;;;;;;4264951;27;20123;-69
2021/10/23 09:03:33;;;;;;;4.00;1.92;;;28.20;48.50;;;;;;4256627;27;20456;-72
2021/10/23 09:05:37;;;;;;;4.30;1.60;;;28.20;48.50;;;;;;4260770;27;20501;-73
2021/10/23 09:07:44;;;;;;;4.97;1.80;;;28.20;48.50;;;;;;4263361;27;20058;-68
2021/10/23 09:09:49;;;;;;;4.97;1.98;;;28.10;48.40;;;;;;4253301;27;20042;-72
2021/10/23 09:11:53;;;;;;;5.10;1.55;;;28.20;48.40;;;;;;4264825;27;20641;-69
2021/10/23 09:14:16;;;;;;;6.18;1.98;;;28.20;48.00;;;;;;4255794;27;20183;-73
2021/10/23 09:16:19;;;;;;;7.28;1.90;;;28.20;47.80;;;;;;4263635;27;20055;-73
2021/10/23 09:18:42;;;;;;;6.78;1.73;;;28.20;47.60;;;;;;4262064;27;20051;-70
2021/10/23 09:20:45;;;;;;;7.47;2.33;;;28.20;47.40;;;;;;4257412;27;20666;-74
2021/10/23 09:22:50;;;;;;;6.95;2.47;;;28.20;47.30;;;;;;4262152;27;20498;-73
2021/10/23 09:25:07;;;;;;;;;;;28.20;47.10;;;;;;4263025;27;20054;-72
2021/10/23 09:27:15;;;;;;;4.90;2.03;;;28.10;47.10;;;;;;4261494;27;20566;-69
2021/10/23 09:29:23;;;;;;;6.72;2.10;;;28.10;46.90;;;;;;4259657;27;20280;-71
2021/10/23 09:31:47;;;;;;;8.60;2.30;;;28.10;46.80;;;;;;4249138;27;20051;-69
2021/10/23 09:33:59;;;;;;;4.57;2.22;;;28.10;46.70;;;;;;4249357;27;20051;-72
2021/10/23 09:36:04;;;;;;;6.55;2.40;;;28.10;46.80;;;;;;4255750;27;20487;-68
2021/10/23 09:38:09;;;;;;;5.93;2.25;;;28.10;46.60;;;;;;4246980;27;20050;-74
2021/10/23 09:40:18;;;;;;;7.20;2.13;;;28.10;46.60;;;;;;4259233;27;20077;-73
2021/10/23 09:42:22;;;;;;;8.55;2.75;;;28.10;46.60;;;;;;4246995;27;20399;-71
2021/10/23 09:44:25;;;;;;;5.40;2.13;;;28.10;46.50;;;;;;4232899;27;20043;-68
2021/10/23 09:46:28;;;;;;;5.05;1.75;;;28.20;46.60;;;;;;4255704;27;20073;-66
2021/10/23 09:48:33;;;;;;;9.82;2.30;;;28.10;46.50;;;;;;4228836;27;20117;-72
2021/10/23 09:50:39;;;;;;;8.00;2.42;;;28.10;46.30;;;;;;4259763;27;20047;-66
2021/10/23 09:53:01;;;;;;;8.52;2.47;;;28.10;46.40;;;;;;4247049;27;20054;-66
2021/10/23 09:55:07;;;;;;;11.20;2.90;;;28.10;46.50;;;;;;4253516;27;20500;-67
2021/10/23 09:57:11;;;;;;;9.25;2.72;;;28.20;46.60;;;;;;4252226;27;20051;-71
2021/10/23 09:59:25;;;;;;;4.97;2.28;;;28.10;46.60;;;;;;4247655;27;20523;-69
2021/10/23 10:01:30;;;;;;;9.00;2.78;;;28.10;46.50;;;;;;4252339;27;20050;-73
2021/10/23 10:03:35;;;;;;;7.90;2.60;;;28.10;46.50;;;;;;4256446;27;20047;-74
2021/10/23 10:05:40;;;;;;;;;;;28.10;46.40;;;;;;4256046;27;20087;-71
2021/10/23 10:07:43;;;;;;;8.43;2.80;;;28.10;46.50;;;;;;4250188;27;19973;-70
2021/10/23 10:09:47;;;;;;;9.27;2.50;;;28.00;46.90;;;;;;4247970;27;20456;-72
2021/10/23 10:11:53;;;;;;;6.13;2.50;;;28.10;46.40;;;;;;4258429;27;20395;-71
2021/10/23 10:13:57;;;;;;;5.32;2.22;;;28.10;46.40;;;;;;4247012;27;20116;-69
2021/10/23 10:16:02;;;;;;;9.38;2.38;;;28.10;46.40;;;;;;4255307;27;20149;-70
2021/10/23 10:18:06;;;;;;;5.43;2.40;;;28.10;46.40;;;;;;4249999;27;20488;-70
2021/10/23 10:20:11;;;;;;;9.85;2.30;;;28.10;46.40;;;;;;4250516;27;20050;-66
2021/10/23 10:22:15;;;;;;;7.10;2.67;;;28.10;46.40;;;;;;4252177;27;20086;-70
2021/10/23 10:24:20;;;;;;;6.55;2.53;;;28.10;46.40;;;;;;4263648;27;20479;-71
2021/10/23 10:26:31;;;;;;;9.95;2.60;;;28.10;46.50;;;;;;4253960;27;20047;-72
2021/10/23 10:28:34;;;;;;;7.57;2.58;;;28.10;46.50;;;;;;4261509;27;20043;-69
2021/10/23 10:30:41;;;;;;;7.10;2.20;;;28.10;46.40;;;;;;4243536;27;20159;-72
2021/10/23 10:32:44;;;;;;;8.55;1.90;;;28.10;46.40;;;;;;4252847;27;20038;-71
2021/10/23 10:35:28;;;;;;;3.10;1.70;;;28.10;46.30;;;;;;4263839;27;20071;-73
2021/10/23 10:39:50;;;;;;;7.38;2.40;;;28.10;46.30;;;;;;4246651;27;20051;-72
2021/10/23 10:44:41;;;;;;;7.32;2.20;;;28.10;46.40;;;;;;4246208;27;20414;-69
2021/10/23 10:47:07;;;;;;;5.00;2.15;;;28.00;46.20;;;;;;4250711;27;20050;-75
2021/10/23 10:49:40;;;;;;;11.02;2.50;;;28.10;46.90;;;;;;4251377;27;20136;-71
2021/10/23 10:51:43;;;;;;;8.45;2.40;;;28.10;46.70;;;;;;4256378;27;20047;-67
2021/10/23 10:54:07;;;;;;;5.75;2.40;;;28.10;46.70;;;;;;4253730;27;20119;-73